Time;durP1;ratioP1;P1;durP2;ratioP2;P2;SDS_P1;SDS_P2;PMS_P1;PMS_P2;Temp;Humidity;BMP_temperature;BMP_pressure;BME280_temperature;BME280_humidity;BME280_pressure;Samples;Min_cycle;Max_cycle;Signal;HPM_P1;HPM_P2
2024/01/06 00:01:15;;;;;;;16.52;12.75;;;;;;;9.92;65.16;100393.03;4991312;28;98313;-69
2024/01/06 00:03:42;;;;;;;14.45;11.70;;;;;;;9.89;65.24;100401.31;5001749;27;96895;-69
2024/01/06 00:06:12;;;;;;;15.23;11.88;;;;;;;9.87;65.21;100398.75;4998435;28;98860;-69
2024/01/06 00:08:39;;;;;;;14.20;11.00;;;;;;;9.86;65.29;100398.88;5000256;28;98840;-69
2024/01/06 00:11:06;;;;;;;14.13;10.82;;;;;;;9.83;65.35;100408.00;5001884;28;98075;-69
2024/01/06 00:13:32;;;;;;;16.77;12.23;;;;;;;9.81;65.30;100409.09;5000788;28;97731;-69
2024/01/06 00:16:00;;;;;;;15.85;11.77;;;;;;;9.78;65.45;100417.38;4999534;28;97091;-69
2024/01/06 00:18:27;;;;;;;16.38;12.40;;;;;;;9.75;65.11;100414.91;4998447;28;100124;-69
2024/01/06 00:20:54;;;;;;;14.73;11.15;;;;;;;9.71;65.38;100416.13;4998850;28;97585;-69
2024/01/06 00:23:20;;;;;;;15.57;11.38;;;;;;;9.70;65.09;100425.13;4998881;28;97118;-69
2024/01/06 00:25:47;;;;;;;14.57;11.15;;;;;;;9.68;65.12;100427.06;4999204;28;96886;-69
2024/01/06 00:28:14;;;;;;;15.23;10.55;;;;;;;9.66;65.16;100432.53;4989544;28;99196;-69
2024/01/06 00:30:40;;;;;;;14.60;10.82;;;;;;;9.64;64.96;100430.91;4995654;28;98001;-69
2024/01/06 00:33:07;;;;;;;15.07;10.77;;;;;;;9.64;64.91;100436.28;5000423;28;97531;-69
2024/01/06 00:35:34;;;;;;;15.75;10.98;;;;;;;9.64;64.95;100438.94;5006383;28;97141;-69
2024/01/06 00:38:01;;;;;;;13.88;10.23;;;;;;;9.61;64.94;100436.50;5013760;28;97653;-69
2024/01/06 00:40:27;;;;;;;14.00;10.00;;;;;;;9.61;64.94;100447.22;5004207;28;97561;-69
2024/01/06 00:42:54;;;;;;;12.65;9.68;;;;;;;9.58;65.09;100442.94;5001281;28;97146;-69
2024/01/06 00:45:22;;;;;;;13.38;10.27;;;;;;;9.56;64.98;100451.09;4998940;28;97362;-69
2024/01/06 00:47:49;;;;;;;14.60;10.60;;;;;;;9.52;64.66;100444.25;4999552;28;99075;-69
2024/01/06 00:50:19;;;;;;;13.48;10.20;;;;;;;9.52;65.00;100444.25;5000214;28;97992;-69
2024/01/06 00:52:46;;;;;;;13.27;10.07;;;;;;;9.52;64.69;100451.44;5001372;28;96925;-69
2024/01/06 00:55:13;;;;;;;13.35;10.38;;;;;;;9.49;64.74;100448.97;5005722;28;97162;-69
2024/01/06 00:57:40;;;;;;;13.02;9.73;;;;;;;9.49;64.82;100440.94;5000099;28;99430;-69
2024/01/06 01:00:07;;;;;;;13.52;10.07;;;;;;;9.49;64.78;100444.47;4998313;28;97463;-69
2024/01/06 01:02:33;;;;;;;13.40;10.48;;;;;;;9.47;64.83;100450.91;5001934;28;97203;-69
2024/01/06 01:05:03;;;;;;;11.98;9.63;;;;;;;9.46;64.74;100450.06;5003199;28;98384;-69
2024/01/06 01:07:30;;;;;;;12.50;9.88;;;;;;;9.47;64.84;100453.59;4999446;28;97510;-69
2024/01/06 01:09:57;;;;;;;11.40;9.50;;;;;;;9.46;64.52;100457.25;4999559;28;97453;-69
2024/01/06 01:12:24;;;;;;;11.38;9.70;;;;;;;9.44;64.48;100460.03;5001811;28;96955;-69
2024/01/06 01:14:51;;;;;;;12.70;10.10;;;;;;;9.42;64.59;100458.44;5000086;28;97143;-69
2024/01/06 01:17:18;;;;;;;11.65;9.60;;;;;;;9.39;64.59;100467.56;5000509;28;97931;-69
2024/01/06 01:19:45;;;;;;;11.45;9.35;;;;;;;9.37;64.47;100474.84;5004841;28;98332;-69
2024/01/06 01:22:12;;;;;;;12.57;9.10;;;;;;;9.36;64.37;100469.59;4999546;28;97266;-69
2024/01/06 01:24:39;;;;;;;11.93;9.60;;;;;;;9.34;64.55;100475.06;5016902;27;97181;-69
2024/01/06 01:27:06;;;;;;;11.35;9.40;;;;;;;9.34;64.24;100479.56;4996746;28;100098;-70
2024/01/06 01:29:33;;;;;;;10.77;9.02;;;;;;;9.33;64.34;100476.03;5002007;28;97611;-69
2024/01/06 01:31:59;;;;;;;12.95;9.95;;;;;;;9.32;64.23;100482.34;5001545;28;97264;-69
2024/01/06 01:34:26;;;;;;;10.65;8.82;;;;;;;9.31;64.44;100487.81;5002302;28;97708;-69
2024/01/06 01:36:53;;;;;;;11.77;9.43;;;;;;;9.28;64.21;100490.72;5001688;28;97583;-69
2024/01/06 01:39:20;;;;;;;12.43;9.30;;;;;;;9.26;64.33;100498.00;5000688;28;97763;-69
2024/01/06 01:41:47;;;;;;;11.85;9.50;;;;;;;9.23;64.10;100507.13;5000472;28;97989;-69
2024/01/06 01:44:13;;;;;;;14.02;9.35;;;;;;;9.18;64.16;100499.41;5003057;28;96918;-69
2024/01/06 01:46:40;;;;;;;12.70;9.55;;;;;;;9.14;64.25;100507.78;4999694;28;97806;-69
2024/01/06 01:49:07;;;;;;;14.30;10.63;;;;;;;9.13;64.45;100506.06;5004021;28;97670;-69
2024/01/06 01:51:35;;;;;;;13.48;10.65;;;;;;;9.10;64.23;100509.81;5001114;28;96849;-69
2024/01/06 01:54:05;;;;;;;13.77;10.55;;;;;;;9.09;64.17;100515.28;5005162;28;97416;-69
2024/01/06 01:56:35;;;;;;;13.57;11.38;;;;;;;9.09;64.32;100520.63;5004596;28;98976;-68
2024/01/06 01:59:08;;;;;;;15.13;11.68;;;;;;;9.08;64.23;100529.66;5005079;28;97557;-69
2024/01/06 02:01:35;;;;;;;15.02;11.45;;;;;;;9.07;64.35;100528.78;5001510;28;98421;-69
2024/01/06 02:04:03;;;;;;;16.27;12.65;;;;;;;9.03;64.13;100527.28;4998936;28;97136;-69
2024/01/06 02:06:29;;;;;;;14.90;11.27;;;;;;;9.02;64.16;100532.75;5002720;28;97391;-69
2024/01/06 02:08:56;;;;;;;15.18;12.35;;;;;;;9.00;64.24;100548.94;5006682;28;98191;-69
2024/01/06 02:11:23;;;;;;;17.75;13.45;;;;;;;8.98;64.25;100550.84;5002279;28;97161;-69
2024/01/06 02:13:50;;;;;;;18.40;13.75;;;;;;;8.97;64.29;100559.84;5003918;28;97095;-69
2024/01/06 02:16:17;;;;;;;18.80;13.98;;;;;;;8.96;64.42;100552.78;5004645;28;97960;-69
2024/01/06 02:18:44;;;;;;;16.95;12.90;;;;;;;8.90;64.38;100559.38;4985845;28;100078;-69
2024/01/06 02:21:11;;;;;;;18.10;13.88;;;;;;;8.85;64.16;100560.66;5004384;28;97296;-69
2024/01/06 02:23:38;;;;;;;17.15;13.38;;;;;;;8.83;64.43;100562.59;5005065;28;98225;-69
2024/01/06 02:26:05;;;;;;;18.92;13.98;;;;;;;8.80;64.36;100560.97;5005381;28;98112;-69
2024/01/06 02:28:31;;;;;;;18.67;14.27;;;;;;;8.79;64.46;100567.28;5003552;28;97611;-69
2024/01/06 02:30:58;;;;;;;16.83;13.13;;;;;;;8.77;64.50;100566.53;5001884;28;97322;-69
2024/01/06 02:33:25;;;;;;;15.32;12.20;;;;;;;8.75;64.25;100563.13;5002720;28;97807;-69
2024/01/06 02:35:52;;;;;;;18.58;12.60;;;;;;;8.73;64.47;100567.72;5001830;28;98254;-69
2024/01/06 02:38:18;;;;;;;16.77;12.93;;;;;;;8.71;64.12;100575.00;5004065;28;98466;-69
2024/01/06 02:40:45;;;;;;;15.63;12.02;;;;;;;8.69;64.24;100581.41;5004404;28;97168;-69
2024/01/06 02:43:12;;;;;;;16.25;11.27;;;;;;;8.68;64.35;100579.69;5002079;28;97620;-69
2024/01/06 02:45:38;;;;;;;14.98;11.90;;;;;;;8.66;64.38;100582.47;5002505;28;97968;-69
2024/01/06 02:48:05;;;;;;;14.25;11.48;;;;;;;8.65;64.23;100583.44;5001441;28;97655;-69
2024/01/06 02:50:32;;;;;;;15.60;11.77;;;;;;;8.65;64.22;100591.47;4999113;28;97163;-69
2024/01/06 02:52:59;;;;;;;14.95;11.35;;;;;;;8.65;64.30;100583.44;5006974;28;96916;-69
2024/01/06 02:55:25;;;;;;;15.52;11.85;;;;;;;8.63;64.45;100593.38;5001823;28;97620;-69
2024/01/06 02:57:52;;;;;;;13.63;10.90;;;;;;;8.63;64.48;100598.75;5002855;28;100293;-69
2024/01/06 03:00:19;;;;;;;14.55;11.65;;;;;;;8.62;64.41;100601.53;5002260;27;97182;-69
2024/01/06 03:02:46;;;;;;;16.55;12.48;;;;;;;8.62;64.25;100599.69;5002408;28;97109;-70
2024/01/06 03:05:12;;;;;;;14.95;11.75;;;;;;;8.63;64.32;100603.25;5003432;28;98084;-69
2024/01/06 03:07:39;;;;;;;17.27;12.43;;;;;;;8.60;64.12;100598.94;5001950;28;97617;-69
2024/01/06 03:10:06;;;;;;;15.00;11.48;;;;;;;8.59;64.34;100599.91;5003311;28;96851;-69
2024/01/06 03:12:33;;;;;;;15.57;12.45;;;;;;;8.59;64.13;100607.94;5000263;28;97483;-69
2024/01/06 03:15:00;;;;;;;15.82;11.95;;;;;;;8.58;64.28;100612.44;5000986;28;97586;-69
2024/01/06 03:17:28;;;;;;;17.17;12.25;;;;;;;8.60;64.47;100615.88;4998372;28;97471;-69
2024/01/06 03:19:56;;;;;;;14.73;11.85;;;;;;;8.62;64.37;100618.44;5004060;28;96825;-69
2024/01/06 03:22:23;;;;;;;16.27;12.23;;;;;;;8.61;64.42;100616.72;4999830;28;97773;-69
2024/01/06 03:24:50;;;;;;;14.30;12.13;;;;;;;8.63;64.10;100624.66;4999011;28;97607;-69
2024/01/06 03:27:16;;;;;;;15.65;12.02;;;;;;;8.63;64.19;100621.97;4997726;28;97487;-71
2024/01/06 03:29:43;;;;;;;15.77;12.52;;;;;;;8.64;64.32;100621.03;4997870;28;96911;-69
2024/01/06 03:32:10;;;;;;;15.40;12.30;;;;;;;8.64;64.14;100629.06;4997746;28;96914;-69
2024/01/06 03:34:37;;;;;;;15.05;11.90;;;;;;;8.63;64.08;100635.38;5000217;28;97555;-69
2024/01/06 03:37:04;;;;;;;16.30;11.23;;;;;;;8.64;64.08;100643.28;4997155;28;98429;-69
2024/01/06 03:39:31;;;;;;;15.73;12.55;;;;;;;8.63;64.22;100646.06;4999465;28;97104;-69
2024/01/06 03:41:58;;;;;;;16.25;12.57;;;;;;;8.64;64.18;100645.09;5001898;28;97352;-69
2024/01/06 03:44:25;;;;;;;17.50;14.00;;;;;;;8.63;64.30;100646.06;5001728;28;98063;-69
2024/01/06 03:46:51;;;;;;;18.58;13.35;;;;;;;8.63;64.45;100651.44;4996254;28;97460;-69
2024/01/06 03:49:20;;;;;;;16.75;13.18;;;;;;;8.63;64.31;100656.78;4997427;28;97098;-69
2024/01/06 03:51:47;;;;;;;18.88;13.25;;;;;;;8.64;64.07;100658.50;5002623;28;98358;-69
2024/01/06 03:54:14;;;;;;;17.35;13.88;;;;;;;8.64;64.27;100664.72;5001188;28;97401;-69
2024/01/06 03:56:41;;;;;;;18.85;13.85;;;;;;;8.65;64.39;100660.22;5004735;28;97523;-69
2024/01/06 03:59:08;;;;;;;18.85;13.95;;;;;;;8.65;64.39;100661.06;5002697;28;97901;-69
2024/01/06 04:01:35;;;;;;;17.67;13.23;;;;;;;8.66;64.15;100660.13;5000582;28;97141;-69
2024/01/06 04:04:03;;;;;;;17.20;13.65;;;;;;;8.66;64.07;100664.59;4997819;28;97901;-69
2024/01/06 04:06:32;;;;;;;19.13;14.45;;;;;;;8.64;64.23;100669.19;5001585;28;98443;-69
2024/01/06 04:09:00;;;;;;;18.38;14.20;;;;;;;8.62;64.26;100676.47;4998945;28;97298;-68
2024/01/06 04:11:27;;;;;;;17.88;14.15;;;;;;;8.61;64.38;100675.63;5001724;28;97860;-69
2024/01/06 04:13:53;;;;;;;19.10;14.68;;;;;;;8.62;64.14;100677.34;5002315;28;97898;-69
2024/01/06 04:16:20;;;;;;;21.38;15.25;;;;;;;8.62;64.27;100679.16;5003802;28;98022;-69
2024/01/06 04:18:47;;;;;;;19.42;14.30;;;;;;;8.59;64.27;100680.22;5002368;28;97236;-69
2024/01/06 04:21:14;;;;;;;19.90;14.45;;;;;;;8.59;64.24;100677.53;5004700;28;97750;-69
2024/01/06 04:23:40;;;;;;;21.20;14.68;;;;;;;8.57;64.13;100676.78;5003197;28;97789;-69
2024/01/06 04:26:07;;;;;;;20.02;15.35;;;;;;;8.58;64.00;100686.53;4998218;28;97871;-69
2024/01/06 04:28:34;;;;;;;19.55;15.05;;;;;;;8.57;64.21;100687.47;5004491;28;97549;-69
2024/01/06 04:31:00;;;;;;;20.17;15.20;;;;;;;8.58;64.23;100690.06;5002231;28;96804;-69
2024/01/06 04:33:27;;;;;;;21.15;16.10;;;;;;;8.59;64.33;100693.59;5002770;28;97696;-69
2024/01/06 04:35:54;;;;;;;20.67;15.63;;;;;;;8.59;64.20;100696.28;5002347;28;97795;-69
2024/01/06 04:38:21;;;;;;;22.48;16.30;;;;;;;8.59;64.19;100701.63;5000768;28;97301;-69
2024/01/06 04:40:48;;;;;;;23.48;17.13;;;;;;;8.56;64.22;100707.19;5003797;28;96841;-69
2024/01/06 04:43:14;;;;;;;22.42;15.55;;;;;;;8.56;63.98;100704.50;5001571;28;97775;-69
2024/01/06 04:45:41;;;;;;;21.30;16.30;;;;;;;8.53;64.07;100702.88;4998057;28;97439;-68
2024/01/06 04:48:08;;;;;;;22.15;16.25;;;;;;;8.52;63.96;100697.63;5002057;28;96926;-69
2024/01/06 04:50:35;;;;;;;20.40;15.05;;;;;;;8.50;63.89;100703.09;5000449;28;96975;-69
2024/01/06 04:53:01;;;;;;;19.20;14.20;;;;;;;8.47;64.07;100705.97;5002449;28;97963;-69
2024/01/06 04:55:28;;;;;;;19.85;14.27;;;;;;;8.41;63.73;100705.50;5003004;28;97596;-69
2024/01/06 04:57:55;;;;;;;18.38;13.30;;;;;;;8.37;63.78;100706.66;5000269;28;97027;-69
2024/01/06 05:00:22;;;;;;;19.67;14.00;;;;;;;8.33;63.89;100702.41;5002633;28;97214;-69
2024/01/06 05:02:48;;;;;;;19.77;14.07;;;;;;;8.31;63.92;100705.19;4997945;28;97717;-69
2024/01/06 05:05:15;;;;;;;16.13;12.52;;;;;;;8.31;63.89;100704.34;4993037;28;100027;-69
2024/01/06 05:07:42;;;;;;;14.95;10.65;;;;;;;8.29;64.03;100716.00;5000129;28;97173;-69
2024/01/06 05:10:09;;;;;;;15.25;11.60;;;;;;;8.27;63.89;100711.69;5005372;28;97404;-69
2024/01/06 05:12:35;;;;;;;12.45;9.23;;;;;;;8.23;63.95;100712.84;4999451;28;100141;-69
2024/01/06 05:15:02;;;;;;;13.38;9.40;;;;;;;8.19;63.59;100719.34;5000366;28;98170;-69
2024/01/06 05:17:29;;;;;;;10.35;8.00;;;;;;;8.14;63.95;100724.97;5001192;28;98072;-70
2024/01/06 05:19:56;;;;;;;13.25;8.80;;;;;;;8.09;63.78;100724.38;5008010;28;97261;-69
2024/01/06 05:22:23;;;;;;;12.05;9.25;;;;;;;8.06;63.77;100735.28;5006331;28;97699;-69
2024/01/06 05:24:53;;;;;;;12.85;8.93;;;;;;;8.05;63.89;100738.06;5013596;28;97462;-69
2024/01/06 05:27:20;;;;;;;10.77;9.10;;;;;;;8.03;63.76;100740.81;5010087;28;96855;-69
2024/01/06 05:29:48;;;;;;;11.05;8.85;;;;;;;8.03;63.87;100750.66;5005774;28;97160;-69
2024/01/06 05:32:16;;;;;;;13.55;9.85;;;;;;;8.03;63.98;100746.16;5000625;28;97681;-69
2024/01/06 05:34:44;;;;;;;12.85;9.30;;;;;;;8.04;63.95;100760.41;5019446;27;97508;-69
2024/01/06 05:37:12;;;;;;;12.07;9.05;;;;;;;8.01;63.85;100760.59;5006266;28;96792;-69
2024/01/06 05:39:39;;;;;;;13.07;8.88;;;;;;;7.97;63.78;100762.59;4998808;28;97212;-69
2024/01/06 05:42:10;;;;;;;13.65;9.27;;;;;;;7.94;63.59;100760.97;5012610;28;97919;-69
2024/01/06 05:44:37;;;;;;;13.93;10.20;;;;;;;7.91;63.62;100766.50;5013649;27;97485;-69
2024/01/06 05:47:04;;;;;;;14.60;9.77;;;;;;;7.89;63.62;100764.88;5005665;28;97338;-69
2024/01/06 05:49:31;;;;;;;13.40;10.30;;;;;;;7.87;63.65;100756.94;5004590;28;97539;-69
2024/01/06 05:51:58;;;;;;;12.73;9.90;;;;;;;7.85;63.59;100780.25;5009448;28;99024;-69
2024/01/06 05:54:24;;;;;;;13.07;10.20;;;;;;;7.84;63.74;100778.53;5016356;28;97412;-69
2024/01/06 05:56:51;;;;;;;13.48;10.75;;;;;;;7.85;63.75;100776.72;5002842;27;96902;-69
2024/01/06 05:59:18;;;;;;;13.52;10.18;;;;;;;7.84;63.48;100778.53;5014036;28;97631;-69
2024/01/06 06:01:45;;;;;;;12.25;10.20;;;;;;;7.83;63.55;100778.63;5017763;28;98086;-69
2024/01/06 06:04:12;;;;;;;11.23;9.02;;;;;;;7.81;63.44;100792.09;4989848;28;97626;-69
2024/01/06 06:06:38;;;;;;;11.15;9.93;;;;;;;7.79;63.37;100801.16;4997561;28;96763;-69
2024/01/06 06:09:06;;;;;;;12.70;9.82;;;;;;;7.76;63.44;100796.00;5013235;28;96849;-69
2024/01/06 06:11:33;;;;;;;12.80;9.82;;;;;;;7.74;63.26;100814.78;5004336;28;97569;-69
2024/01/06 06:14:02;;;;;;;11.55;10.10;;;;;;;7.71;63.45;100811.44;4991558;28;97483;-69
2024/01/06 06:16:29;;;;;;;13.45;10.60;;;;;;;7.69;63.47;100813.34;5014888;28;96908;-69
2024/01/06 06:18:56;;;;;;;11.57;9.68;;;;;;;7.68;63.47;100817.81;4999126;28;97123;-69
2024/01/06 06:21:23;;;;;;;14.32;10.77;;;;;;;7.66;63.41;100825.06;5002308;28;97723;-69
2024/01/06 06:23:50;;;;;;;14.18;10.45;;;;;;;7.67;63.31;100825.94;4998069;28;97602;-70
2024/01/06 06:26:17;;;;;;;13.13;10.02;;;;;;;7.67;63.29;100840.16;5007410;28;97261;-69
2024/01/06 06:28:44;;;;;;;13.40;10.65;;;;;;;7.67;63.29;100842.84;5000191;28;96878;-68
2024/01/06 06:31:11;;;;;;;12.82;10.35;;;;;;;7.65;63.27;100840.25;4999418;28;97696;-69
2024/01/06 06:33:39;;;;;;;12.90;10.65;;;;;;;7.63;63.29;100847.50;4991988;28;97923;-69
2024/01/06 06:36:06;;;;;;;14.00;11.20;;;;;;;7.59;63.08;100845.09;4990587;27;97720;-69
2024/01/06 06:38:33;;;;;;;13.65;11.20;;;;;;;7.56;63.11;100853.31;4991121;28;97429;-69
2024/01/06 06:41:00;;;;;;;13.90;11.15;;;;;;;7.53;63.32;100853.47;4990615;28;97879;-69
2024/01/06 06:43:27;;;;;;;13.45;11.10;;;;;;;7.50;63.33;100859.00;4999028;28;97436;-68
2024/01/06 06:45:55;;;;;;;15.63;11.32;;;;;;;7.50;63.15;100859.00;4995851;28;97319;-69
2024/01/06 06:48:22;;;;;;;14.88;12.10;;;;;;;7.50;63.27;100870.56;5004377;28;97440;-68
2024/01/06 06:50:49;;;;;;;15.18;12.07;;;;;;;7.49;63.33;100868.84;5007002;28;97894;-69
2024/01/06 06:53:15;;;;;;;14.80;11.25;;;;;;;7.49;63.23;100876.84;4997988;27;97735;-69
2024/01/06 06:55:42;;;;;;;13.82;11.50;;;;;;;7.49;63.23;100884.88;4994727;28;97683;-69
2024/01/06 06:58:09;;;;;;;14.65;11.45;;;;;;;7.50;63.32;100889.25;5005153;28;96977;-69
2024/01/06 07:00:37;;;;;;;16.65;12.75;;;;;;;7.53;63.15;100894.44;5013722;28;100296;-69
2024/01/06 07:03:04;;;;;;;15.93;11.63;;;;;;;7.55;63.17;100897.00;5012781;28;97764;-69
2024/01/06 07:05:31;;;;;;;15.45;12.63;;;;;;;7.58;63.38;100896.84;4988369;28;96775;-69
2024/01/06 07:08:00;;;;;;;15.52;12.70;;;;;;;7.59;63.18;100896.75;4986059;28;97371;-69
2024/01/06 07:10:27;;;;;;;13.80;11.18;;;;;;;7.62;63.35;100907.25;4999808;28;97647;-69
2024/01/06 07:12:54;;;;;;;16.67;11.57;;;;;;;7.61;63.22;100908.22;4999488;28;97589;-69
2024/01/06 07:15:21;;;;;;;15.20;12.25;;;;;;;7.59;63.29;100906.56;4994748;28;96884;-69
2024/01/06 07:17:48;;;;;;;14.75;11.95;;;;;;;7.58;63.10;100913.72;5005034;28;97546;-68
2024/01/06 07:20:15;;;;;;;16.80;12.45;;;;;;;7.58;63.17;100924.41;5002766;27;98120;-69
2024/01/06 07:22:41;;;;;;;14.63;10.95;;;;;;;7.55;62.99;100924.59;5001256;28;97547;-69
2024/01/06 07:25:08;;;;;;;13.68;11.25;;;;;;;7.55;63.26;100932.63;5010611;28;97380;-69
2024/01/06 07:27:35;;;;;;;13.65;11.00;;;;;;;7.55;63.26;100937.97;4994818;28;97130;-69
2024/01/06 07:30:01;;;;;;;13.93;10.68;;;;;;;7.53;63.14;100942.53;4993395;28;97639;-69
2024/01/06 07:32:28;;;;;;;15.75;11.05;;;;;;;7.51;63.01;100952.44;5009533;28;97547;-69
2024/01/06 07:34:55;;;;;;;12.65;10.27;;;;;;;7.50;63.01;100956.06;5005531;28;97327;-69
2024/01/06 07:37:22;;;;;;;12.73;10.85;;;;;;;7.49;62.90;100950.81;5002319;28;97289;-69
2024/01/06 07:39:48;;;;;;;14.75;10.32;;;;;;;7.48;63.12;100952.63;5001072;28;98187;-69
2024/01/06 07:42:15;;;;;;;13.27;10.85;;;;;;;7.46;63.07;100961.66;4998538;28;97588;-71
2024/01/06 07:44:42;;;;;;;13.52;10.65;;;;;;;7.45;63.14;100960.81;5002058;28;97163;-69
2024/01/06 07:47:09;;;;;;;14.00;10.77;;;;;;;7.45;63.09;100954.59;5002675;28;97210;-69
2024/01/06 07:49:36;;;;;;;13.13;10.15;;;;;;;7.46;63.16;100962.53;4982800;28;100045;-69
2024/01/06 07:52:03;;;;;;;14.52;10.85;;;;;;;7.48;63.09;100963.31;4997842;28;97454;-69
2024/01/06 07:54:30;;;;;;;13.45;10.43;;;;;;;7.49;63.11;100970.38;5002573;28;97023;-69
2024/01/06 07:56:56;;;;;;;16.60;11.73;;;;;;;7.50;63.21;100976.59;5001323;28;97254;-69
2024/01/06 07:59:23;;;;;;;17.00;10.68;;;;;;;7.51;63.22;100983.66;4998794;28;98056;-69
2024/01/06 08:01:50;;;;;;;14.05;11.45;;;;;;;7.49;63.12;100981.06;4999369;28;97775;-69
2024/01/06 08:04:17;;;;;;;16.10;11.90;;;;;;;7.46;62.97;100991.06;5003397;28;96835;-69
2024/01/06 08:06:44;;;;;;;13.93;10.95;;;;;;;7.45;62.86;100992.88;5004997;28;98047;-69
2024/01/06 08:09:10;;;;;;;14.27;10.95;;;;;;;7.42;62.87;100986.81;5001498;28;97450;-69
2024/01/06 08:11:37;;;;;;;14.30;11.07;;;;;;;7.39;63.22;100995.00;5000295;28;97888;-69
2024/01/06 08:14:04;;;;;;;15.48;11.98;;;;;;;7.36;63.03;101004.03;4985981;28;97671;-70
2024/01/06 08:16:32;;;;;;;16.27;12.02;;;;;;;7.34;63.04;101006.78;5001840;28;97213;-69
2024/01/06 08:18:59;;;;;;;16.40;11.35;;;;;;;7.36;62.99;101017.41;5000428;28;97545;-69
2024/01/06 08:21:26;;;;;;;14.95;11.93;;;;;;;7.37;63.10;101020.94;4994108;28;100338;-69
2024/01/06 08:23:53;;;;;;;15.07;12.02;;;;;;;7.37;63.13;101021.78;5008210;27;97546;-69
2024/01/06 08:26:20;;;;;;;16.45;12.68;;;;;;;7.37;63.21;101024.47;5014979;28;96779;-71
2024/01/06 08:28:47;;;;;;;20.27;14.52;;;;;;;7.36;63.13;101029.88;5004280;28;97745;-69
2024/01/06 08:31:13;;;;;;;16.15;11.73;;;;;;;7.34;62.85;101035.31;5000258;28;97388;-69
2024/01/06 08:33:40;;;;;;;16.10;11.52;;;;;;;7.31;63.07;101040.81;5008710;28;96755;-69
2024/01/06 08:36:08;;;;;;;17.00;11.85;;;;;;;7.31;62.85;101040.81;5003799;28;97099;-69
2024/01/06 08:38:35;;;;;;;12.98;10.60;;;;;;;7.29;62.81;101050.75;4998882;28;97913;-69
2024/01/06 08:41:02;;;;;;;18.45;13.35;;;;;;;7.25;62.86;101052.72;4998791;28;97859;-69
2024/01/06 08:43:29;;;;;;;16.85;12.38;;;;;;;7.21;62.83;101056.50;5002365;28;96794;-69
2024/01/06 08:45:55;;;;;;;18.45;13.60;;;;;;;7.18;62.84;101061.13;4997368;28;97542;-69
2024/01/06 08:48:22;;;;;;;20.60;15.30;;;;;;;7.16;62.75;101065.69;4997238;28;98510;-69
2024/01/06 08:50:49;;;;;;;29.30;19.80;;;;;;;7.17;62.95;101070.09;4999332;28;97544;-69
2024/01/06 08:53:16;;;;;;;26.88;20.15;;;;;;;7.16;62.76;101076.38;5003560;28;96879;-69
2024/01/06 08:55:43;;;;;;;19.90;13.93;;;;;;;7.17;62.89;101073.63;5006248;28;97738;-69
2024/01/06 08:58:13;;;;;;;19.10;12.85;;;;;;;7.21;62.85;101074.31;5007191;28;97946;-69
2024/01/06 09:00:40;;;;;;;19.20;13.13;;;;;;;7.24;63.03;101082.19;5001378;28;99359;-69
2024/01/06 09:03:07;;;;;;;15.95;12.70;;;;;;;7.29;62.85;101085.47;5006181;28;97841;-69
2024/01/06 09:05:34;;;;;;;16.67;12.60;;;;;;;7.33;63.11;101085.22;5002773;28;97765;-69
2024/01/06 09:08:00;;;;;;;15.68;12.23;;;;;;;7.37;63.22;101088.59;5008166;28;99583;-69
2024/01/06 09:10:28;;;;;;;15.48;11.65;;;;;;;7.38;62.80;101087.66;5002412;28;97546;-69
2024/01/06 09:12:56;;;;;;;15.00;11.20;;;;;;;7.38;62.88;101094.78;5008725;28;97248;-69
2024/01/06 09:15:23;;;;;;;15.93;12.45;;;;;;;7.37;63.02;101101.09;5005396;28;97289;-69
2024/01/06 09:17:50;;;;;;;15.40;12.27;;;;;;;7.34;62.71;101102.13;5003768;28;97376;-68
2024/01/06 09:20:22;;;;;;;15.75;12.57;;;;;;;7.31;62.68;101103.13;5003187;28;97678;-69
2024/01/06 09:22:49;;;;;;;17.10;12.45;;;;;;;7.29;62.58;101109.50;5000512;28;97047;-69
2024/01/06 09:25:16;;;;;;;15.63;12.05;;;;;;;7.26;62.41;101113.22;5001469;28;97374;-68
2024/01/06 09:27:43;;;;;;;15.70;11.57;;;;;;;7.26;62.46;101115.00;5005761;28;97493;-69
2024/01/06 09:30:11;;;;;;;18.30;13.50;;;;;;;7.25;62.55;101119.50;4998604;28;99944;-69
2024/01/06 09:32:38;;;;;;;17.02;13.18;;;;;;;7.26;62.66;101120.34;5003984;28;97472;-69
2024/01/06 09:35:05;;;;;;;16.52;13.00;;;;;;;7.26;62.50;101126.56;5004481;28;97364;-69
2024/01/06 09:37:32;;;;;;;17.33;12.30;;;;;;;7.28;62.83;101137.16;5001936;28;97902;-69
2024/01/06 09:39:59;;;;;;;15.07;11.90;;;;;;;7.31;62.63;101140.53;5003369;28;98122;-69
2024/01/06 09:42:26;;;;;;;17.30;11.98;;;;;;;7.34;62.76;101144.84;5000251;28;97187;-69
2024/01/06 09:44:52;;;;;;;15.30;12.18;;;;;;;7.34;62.75;101145.72;5002691;28;96964;-69
2024/01/06 09:47:22;;;;;;;15.93;11.23;;;;;;;7.37;62.60;101151.84;5001353;28;97562;-69
2024/01/06 09:49:50;;;;;;;16.25;11.90;;;;;;;7.38;62.69;101158.91;5002356;28;97911;-70
2024/01/06 09:52:22;;;;;;;14.70;10.82;;;;;;;7.37;62.44;101158.06;5003377;28;97119;-69
2024/01/06 09:54:53;;;;;;;12.80;10.57;;;;;;;7.36;62.52;101160.81;5004757;28;97848;-69
2024/01/06 09:57:23;;;;;;;13.10;11.15;;;;;;;7.36;62.48;101161.66;4998597;28;97692;-69
2024/01/06 09:59:50;;;;;;;14.27;10.88;;;;;;;7.38;62.42;101164.25;5003805;28;98199;-69
2024/01/06 10:02:17;;;;;;;14.05;11.93;;;;;;;7.38;62.36;101165.13;4996331;28;97195;-69
2024/01/06 10:04:44;;;;;;;15.98;13.77;;;;;;;7.39;62.45;101168.66;4999520;28;97321;-69
2024/01/06 10:07:14;;;;;;;13.50;10.90;;;;;;;7.38;62.52;101169.59;5000616;28;97525;-69
2024/01/06 10:09:41;;;;;;;13.10;10.70;;;;;;;7.39;62.39;101174.00;5004696;28;98120;-69
2024/01/06 10:12:09;;;;;;;15.85;12.05;;;;;;;7.40;62.35;101171.25;4995048;28;98407;-69
2024/01/06 10:14:37;;;;;;;19.38;10.75;;;;;;;7.45;62.35;101177.25;5000617;28;96921;-69
2024/01/06 10:17:07;;;;;;;16.77;11.65;;;;;;;7.49;62.42;101184.16;5012695;28;100918;-69
2024/01/06 10:19:35;;;;;;;14.82;11.57;;;;;;;7.47;62.12;101182.50;4998466;28;99365;-69
2024/01/06 10:22:02;;;;;;;13.13;11.10;;;;;;;7.43;61.99;101184.47;5016266;27;97149;-69
2024/01/06 10:24:31;;;;;;;13.70;11.38;;;;;;;7.41;61.96;101185.47;5001970;28;97001;-69
2024/01/06 10:26:58;;;;;;;14.80;10.93;;;;;;;7.39;61.92;101190.91;5001943;28;99927;-69
2024/01/06 10:29:26;;;;;;;15.63;11.00;;;;;;;7.41;61.98;101188.16;4998596;28;97950;-69
2024/01/06 10:31:54;;;;;;;12.55;10.60;;;;;;;7.40;61.67;101187.28;5000317;28;97790;-69
2024/01/06 10:34:23;;;;;;;13.65;11.13;;;;;;;7.35;61.74;101192.00;4999760;27;98290;-69
2024/01/06 10:36:54;;;;;;;12.52;10.52;;;;;;;7.31;61.47;101204.66;4999935;28;97508;-69
2024/01/06 10:39:21;;;;;;;13.52;10.93;;;;;;;7.28;61.50;101203.94;4998805;28;97607;-69
2024/01/06 10:41:49;;;;;;;14.73;11.25;;;;;;;7.26;61.44;101212.03;5002776;28;97535;-69
2024/01/06 10:44:16;;;;;;;12.38;10.75;;;;;;;7.26;61.45;101213.84;4991179;28;97198;-69
2024/01/06 10:46:44;;;;;;;13.45;10.77;;;;;;;7.25;61.50;101213.00;4999833;28;100116;-69
2024/01/06 10:49:12;;;;;;;13.48;10.40;;;;;;;7.26;61.74;101220.06;5003876;28;97525;-69
2024/01/06 10:51:40;;;;;;;12.60;10.80;;;;;;;7.27;61.84;101224.47;4993166;28;97583;-69
2024/01/06 10:54:09;;;;;;;12.10;9.60;;;;;;;7.31;61.78;101217.16;4991685;28;97311;-69
2024/01/06 10:56:38;;;;;;;12.30;10.40;;;;;;;7.35;61.92;101216.06;4999072;28;97551;-69
2024/01/06 10:59:07;;;;;;;11.50;10.10;;;;;;;7.37;61.67;101214.16;5000229;28;97521;-68
2024/01/06 11:01:35;;;;;;;13.00;10.40;;;;;;;7.36;61.49;101220.44;4984379;28;96953;-69
2024/01/06 11:04:04;;;;;;;14.23;10.88;;;;;;;7.34;61.76;101219.66;4999165;28;98155;-69
2024/01/06 11:06:35;;;;;;;12.77;10.40;;;;;;;7.33;61.50;101220.59;5000910;28;97543;-69
2024/01/06 11:09:09;;;;;;;14.25;11.68;;;;;;;7.33;61.46;101225.94;4972862;28;98212;-69
2024/01/06 11:11:37;;;;;;;12.38;10.45;;;;;;;7.33;61.44;101226.81;5001495;28;96939;-69
2024/01/06 11:14:22;;;;;;;12.77;9.93;;;;;;;7.33;61.56;101229.50;4997438;28;98009;-69
2024/01/06 11:16:49;;;;;;;13.95;11.05;;;;;;;7.36;61.71;101235.63;5002087;28;98913;-69